Time;durP1;ratioP1;P1;durP2;ratioP2;P2;SDS_P1;SDS_P2;PMS_P1;PMS_P2;Temp;Humidity;BMP_temperature;BMP_pressure;BME280_temperature;BME280_humidity;BME280_pressure;Samples;Min_cycle;Max_cycle;Signal;HPM_P1;HPM_P2
2024/01/06 00:02:17;;;;;;;28.48;20.80;;;1.80;99.90;;;;;;5133099;28;20039;-78
2024/01/06 00:04:43;;;;;;;33.97;24.67;;;1.30;99.90;;;;;;5147416;28;20042;-77
2024/01/06 00:07:09;;;;;;;24.23;19.73;;;1.30;99.90;;;;;;5119061;27;20381;-77
2024/01/06 00:09:34;;;;;;;26.00;19.10;;;1.30;99.90;;;;;;5119853;27;20055;-78
2024/01/06 00:12:01;;;;;;;23.60;17.98;;;1.30;99.90;;;;;;5151737;27;20034;-77
2024/01/06 00:14:27;;;;;;;28.40;20.33;;;1.20;99.90;;;;;;5145526;27;20065;-78
2024/01/06 00:16:56;;;;;;;25.95;20.80;;;1.20;99.90;;;;;;5143190;27;20034;-77
2024/01/06 00:19:21;;;;;;;26.98;20.15;;;1.20;99.90;;;;;;5150441;27;20034;-77
2024/01/06 00:21:50;;;;;;;32.42;22.65;;;1.20;99.90;;;;;;5103700;27;20047;-77
2024/01/06 00:24:15;;;;;;;;;;;1.30;99.90;;;;;;5113217;27;20043;-77
2024/01/06 00:26:42;;;;;;;28.40;19.00;;;1.30;99.90;;;;;;5158614;27;19930;-76
2024/01/06 00:29:08;;;;;;;30.85;20.05;;;1.20;99.90;;;;;;5154832;27;20099;-78
2024/01/06 00:31:34;;;;;;;28.30;20.50;;;1.20;99.90;;;;;;5156816;27;20039;-77
2024/01/06 00:33:59;;;;;;;30.75;20.17;;;1.20;99.90;;;;;;5149482;27;20067;-77
2024/01/06 00:36:25;;;;;;;30.10;20.88;;;1.30;99.90;;;;;;5127421;27;20043;-77
2024/01/06 00:38:51;;;;;;;27.55;21.50;;;1.10;99.90;;;;;;5128298;27;20142;-76
2024/01/06 00:41:16;;;;;;;30.70;21.63;;;1.20;99.90;;;;;;5150772;27;20468;-78
2024/01/06 00:43:43;;;;;;;30.48;21.85;;;1.60;99.90;;;;;;5147186;27;20472;-78
2024/01/06 00:46:09;;;;;;;30.13;19.73;;;1.20;99.90;;;;;;5156793;27;20066;-79
2024/01/06 00:48:35;;;;;;;28.38;20.15;;;1.90;99.90;;;;;;5165189;27;20043;-78
2024/01/06 00:51:00;;;;;;;31.90;20.58;;;1.20;99.90;;;;;;5161648;27;20043;-78
2024/01/06 00:53:27;;;;;;;28.48;18.88;;;1.20;99.90;;;;;;5125285;27;20039;-77
2024/01/06 00:55:52;;;;;;;26.02;20.33;;;1.20;99.90;;;;;;5145463;27;20080;-78
2024/01/06 00:58:18;;;;;;;27.30;19.05;;;1.20;99.90;;;;;;5155649;27;20027;-77
2024/01/06 01:00:44;;;;;;;24.13;17.70;;;1.20;99.90;;;;;;5132877;27;20056;-78
2024/01/06 01:03:10;;;;;;;26.70;19.02;;;1.20;99.90;;;;;;5137734;27;20050;-77
2024/01/06 01:05:35;;;;;;;28.65;19.48;;;1.20;99.90;;;;;;5142221;27;20532;-77
2024/01/06 01:08:01;;;;;;;24.45;18.23;;;1.20;99.90;;;;;;5150050;27;20538;-77
2024/01/06 01:10:27;;;;;;;23.33;17.33;;;1.20;99.90;;;;;;5148565;27;20043;-77
2024/01/06 01:12:52;;;;;;;22.88;17.85;;;1.20;99.90;;;;;;5153242;27;20050;-78
2024/01/06 01:15:18;;;;;;;23.63;17.05;;;1.10;99.90;;;;;;5145714;27;20047;-77
2024/01/06 01:17:44;;;;;;;21.63;16.95;;;1.20;99.90;;;;;;5153063;27;20126;-77
2024/01/06 01:20:10;;;;;;;21.70;15.50;;;1.10;99.90;;;;;;5128322;27;20502;-77
2024/01/06 01:22:36;;;;;;;23.00;16.73;;;1.20;99.90;;;;;;5128579;27;20042;-78
2024/01/06 01:25:05;;;;;;;23.17;16.67;;;1.60;99.90;;;;;;5141085;27;20389;-77
2024/01/06 01:27:31;;;;;;;22.23;16.23;;;1.30;99.90;;;;;;5145828;27;20046;-77
2024/01/06 01:29:57;;;;;;;22.58;15.98;;;1.10;99.90;;;;;;5135450;27;20038;-77
2024/01/06 01:32:22;;;;;;;23.55;17.33;;;1.10;99.90;;;;;;5136660;27;20545;-78
2024/01/06 01:34:48;;;;;;;22.17;15.77;;;1.10;99.90;;;;;;5118673;27;20034;-77
2024/01/06 01:37:13;;;;;;;20.60;15.93;;;1.10;99.90;;;;;;5146399;27;20039;-77
2024/01/06 01:39:39;;;;;;;24.83;15.45;;;1.50;99.90;;;;;;5109520;27;20047;-77
2024/01/06 01:42:08;;;;;;;19.95;15.18;;;1.60;99.90;;;;;;5127602;27;20039;-77
2024/01/06 01:44:33;;;;;;;20.73;14.90;;;1.00;99.90;;;;;;5127547;27;20042;-77
2024/01/06 01:46:59;;;;;;;21.88;15.68;;;1.50;99.90;;;;;;5128769;27;20396;-78
2024/01/06 01:49:26;;;;;;;21.75;15.48;;;1.00;99.90;;;;;;5154433;27;20200;-78
2024/01/06 01:51:52;;;;;;;20.30;15.07;;;1.50;99.90;;;;;;5136002;27;20067;-76
2024/01/06 01:54:18;;;;;;;23.90;16.00;;;1.00;99.90;;;;;;5136043;27;20035;-78
2024/01/06 01:56:44;;;;;;;23.50;17.30;;;1.00;99.90;;;;;;5149363;27;20050;-77
2024/01/06 01:59:12;;;;;;;18.95;15.55;;;0.90;99.90;;;;;;5163691;27;20023;-77
2024/01/06 02:01:39;;;;;;;22.30;17.10;;;0.90;99.90;;;;;;5164701;27;20039;-79
2024/01/06 02:04:06;;;;;;;23.23;17.52;;;0.80;99.90;;;;;;5148513;27;20062;-77
2024/01/06 02:06:31;;;;;;;25.55;18.10;;;1.70;99.90;;;;;;5134375;27;20104;-78
2024/01/06 02:08:57;;;;;;;24.80;17.60;;;1.20;99.90;;;;;;5108337;27;20039;-78
2024/01/06 02:11:23;;;;;;;22.75;17.20;;;1.30;99.90;;;;;;5149444;27;20466;-77
2024/01/06 02:13:49;;;;;;;24.27;17.30;;;1.80;99.90;;;;;;5150579;27;20571;-79
2024/01/06 02:16:15;;;;;;;22.05;16.15;;;0.90;99.90;;;;;;5164421;27;20067;-77
2024/01/06 02:18:40;;;;;;;24.33;18.70;;;1.70;99.90;;;;;;5145951;27;20515;-77
2024/01/06 02:21:06;;;;;;;25.83;16.30;;;0.90;99.90;;;;;;5118421;27;20041;-77
2024/01/06 02:23:35;;;;;;;23.48;16.50;;;1.00;99.90;;;;;;5167345;27;20034;-77
2024/01/06 02:26:01;;;;;;;22.27;16.17;;;1.40;99.90;;;;;;5113837;27;20559;-76
2024/01/06 02:28:27;;;;;;;24.40;16.30;;;0.90;99.90;;;;;;5141348;27;20106;-77
2024/01/06 02:30:52;;;;;;;23.90;15.60;;;0.90;99.90;;;;;;5108178;27;20043;-77
2024/01/06 02:33:19;;;;;;;23.70;15.98;;;1.80;99.90;;;;;;5131378;27;20386;-77
2024/01/06 02:35:47;;;;;;;22.50;15.95;;;0.90;99.90;;;;;;5124996;27;20112;-77
2024/01/06 02:38:13;;;;;;;19.98;15.05;;;0.90;99.90;;;;;;5139624;27;20057;-77
2024/01/06 02:40:38;;;;;;;22.35;16.60;;;0.90;99.90;;;;;;5147046;27;20034;-77
2024/01/06 02:43:04;;;;;;;19.20;14.27;;;0.70;99.90;;;;;;5123842;27;20064;-77
2024/01/06 02:45:30;;;;;;;19.55;14.65;;;0.80;99.90;;;;;;5157280;27;20478;-76
2024/01/06 02:47:56;;;;;;;19.85;15.15;;;0.80;99.90;;;;;;5123358;27;20507;-78
2024/01/06 02:50:22;;;;;;;20.73;15.75;;;1.50;99.90;;;;;;5102962;27;20039;-77
2024/01/06 02:52:47;;;;;;;21.83;14.68;;;0.80;99.90;;;;;;5151347;27;20042;-77
2024/01/06 02:55:14;;;;;;;20.10;14.77;;;0.80;99.90;;;;;;5159115;27;20450;-77
2024/01/06 02:57:40;;;;;;;20.48;14.45;;;0.80;99.90;;;;;;5134445;27;20043;-76
2024/01/06 03:00:07;;;;;;;19.20;13.40;;;0.80;99.90;;;;;;5140965;27;20055;-77
2024/01/06 03:02:33;;;;;;;20.98;15.30;;;0.70;99.90;;;;;;5135664;27;20043;-76
2024/01/06 03:04:58;;;;;;;21.52;15.77;;;0.80;99.90;;;;;;5122584;27;20114;-77
2024/01/06 03:07:24;;;;;;;23.23;15.38;;;0.80;99.90;;;;;;5132784;27;20518;-77
2024/01/06 03:09:51;;;;;;;26.35;16.38;;;0.70;99.90;;;;;;5143512;27;20503;-77
2024/01/06 03:12:20;;;;;;;27.27;17.42;;;0.80;99.90;;;;;;5134418;27;20066;-77
2024/01/06 03:14:48;;;;;;;22.60;15.98;;;0.70;99.90;;;;;;5128697;27;20088;-76
2024/01/06 03:17:17;;;;;;;25.17;17.23;;;0.80;99.90;;;;;;5127984;27;20397;-76
2024/01/06 03:19:44;;;;;;;24.33;17.17;;;0.70;99.90;;;;;;5134581;27;20038;-77
2024/01/06 03:22:09;;;;;;;27.42;19.05;;;0.70;99.90;;;;;;5111426;27;20084;-77
2024/01/06 03:24:35;;;;;;;26.08;18.15;;;0.80;99.90;;;;;;5146445;27;20039;-77
2024/01/06 03:27:01;;;;;;;26.10;17.92;;;0.70;99.90;;;;;;5104775;27;20424;-76
2024/01/06 03:29:26;;;;;;;26.27;18.67;;;0.80;99.90;;;;;;5132840;27;20035;-76
2024/01/06 03:31:52;;;;;;;30.55;18.60;;;0.80;99.90;;;;;;5124714;27;20516;-77
2024/01/06 03:34:21;;;;;;;28.90;18.55;;;0.80;99.90;;;;;;5133873;27;20034;-77
2024/01/06 03:36:46;;;;;;;;;;;0.80;99.90;;;;;;5148052;27;20046;-77
2024/01/06 03:39:13;;;;;;;26.77;18.75;;;0.80;99.90;;;;;;5136854;27;20365;-78
2024/01/06 03:41:38;;;;;;;27.95;18.70;;;0.70;99.90;;;;;;5130786;27;20117;-76
2024/01/06 03:44:04;;;;;;;25.33;17.65;;;0.80;99.90;;;;;;5145781;27;20545;-76
2024/01/06 03:46:30;;;;;;;27.15;19.80;;;0.80;99.90;;;;;;5129157;27;20047;-77
2024/01/06 03:48:55;;;;;;;27.42;18.52;;;0.70;99.90;;;;;;5126343;28;20047;-76
2024/01/06 03:51:22;;;;;;;27.77;17.98;;;0.70;99.90;;;;;;5116195;28;20465;-78
2024/01/06 03:53:47;;;;;;;27.95;17.63;;;0.70;99.90;;;;;;5113149;28;20051;-77
2024/01/06 03:56:13;;;;;;;26.80;19.27;;;0.70;99.90;;;;;;5156606;27;20031;-77
2024/01/06 03:58:39;;;;;;;25.45;19.02;;;0.70;99.90;;;;;;5141480;27;20027;-77
2024/01/06 04:01:04;;;;;;;28.38;19.52;;;0.80;99.90;;;;;;5146300;27;20022;-77
2024/01/06 04:03:30;;;;;;;26.92;18.95;;;0.70;99.90;;;;;;5155235;27;20083;-77
2024/01/06 04:05:56;;;;;;;26.75;18.25;;;0.70;99.90;;;;;;5165373;27;20034;-79
2024/01/06 04:08:21;;;;;;;25.77;18.00;;;0.70;99.90;;;;;;5179543;27;20034;-77
2024/01/06 04:10:47;;;;;;;26.55;17.98;;;0.70;99.90;;;;;;5161277;27;20050;-77
2024/01/06 04:13:14;;;;;;;28.83;19.27;;;0.80;99.90;;;;;;5154222;27;20029;-77
2024/01/06 04:15:40;;;;;;;29.80;18.55;;;1.50;99.90;;;;;;5165918;27;20057;-77
2024/01/06 04:18:06;;;;;;;27.02;17.77;;;0.70;99.90;;;;;;5154194;27;20019;-76
2024/01/06 04:20:33;;;;;;;28.25;19.10;;;0.70;99.90;;;;;;5134463;27;20019;-77
2024/01/06 04:22:59;;;;;;;28.15;19.13;;;0.70;99.90;;;;;;5162120;27;20049;-76
2024/01/06 04:25:24;;;;;;;28.65;19.35;;;0.70;99.90;;;;;;5173487;27;20043;-77
2024/01/06 04:27:53;;;;;;;27.67;18.85;;;0.60;99.90;;;;;;5159740;27;20064;-76
2024/01/06 04:30:20;;;;;;;26.10;17.75;;;0.70;99.90;;;;;;5154833;27;20034;-77
2024/01/06 04:32:48;;;;;;;26.67;17.50;;;0.80;99.90;;;;;;5136436;27;20107;-78
2024/01/06 04:35:17;;;;;;;24.65;16.90;;;1.60;99.90;;;;;;5131959;27;20035;-78
2024/01/06 04:37:42;;;;;;;23.13;16.55;;;0.70;99.90;;;;;;5147797;27;20039;-76
2024/01/06 04:40:09;;;;;;;24.55;16.83;;;0.70;99.90;;;;;;5153320;27;20031;-76
2024/01/06 04:42:34;;;;;;;28.52;17.38;;;0.70;99.90;;;;;;5160293;27;20031;-77
2024/01/06 04:45:00;;;;;;;23.40;17.45;;;0.70;99.90;;;;;;5131387;27;20066;-76
2024/01/06 04:47:27;;;;;;;22.70;15.88;;;0.70;99.90;;;;;;5148332;27;20488;-78
2024/01/06 04:49:53;;;;;;;26.52;17.00;;;0.70;99.90;;;;;;5115740;27;20526;-76
2024/01/06 04:52:18;;;;;;;23.42;15.77;;;0.80;99.90;;;;;;5129786;27;20038;-79
2024/01/06 04:54:44;;;;;;;22.45;16.23;;;0.70;99.90;;;;;;5129671;27;20043;-77
2024/01/06 04:57:10;;;;;;;23.58;16.02;;;0.70;99.90;;;;;;5122721;27;20504;-77
2024/01/06 04:59:36;;;;;;;24.35;17.17;;;0.70;99.90;;;;;;5130579;27;20167;-77
2024/01/06 05:02:01;;;;;;;20.50;15.85;;;0.90;99.90;;;;;;5134497;27;20047;-77
2024/01/06 05:04:28;;;;;;;23.60;15.15;;;0.70;99.90;;;;;;5143479;27;20525;-78
2024/01/06 05:06:54;;;;;;;22.60;15.88;;;0.90;99.90;;;;;;5145095;27;20039;-78
2024/01/06 05:09:20;;;;;;;25.20;16.75;;;0.70;99.90;;;;;;5144484;27;20046;-76
2024/01/06 05:11:46;;;;;;;21.27;14.20;;;0.70;99.90;;;;;;5139864;27;20051;-78
2024/01/06 05:14:12;;;;;;;22.55;15.93;;;0.70;99.90;;;;;;5140501;27;20089;-79
2024/01/06 05:16:37;;;;;;;22.30;15.57;;;0.70;99.90;;;;;;5131807;27;20051;-77
2024/01/06 05:19:03;;;;;;;20.55;14.93;;;0.70;99.90;;;;;;5129365;27;20152;-76
2024/01/06 05:21:29;;;;;;;21.30;15.30;;;0.70;99.90;;;;;;5142249;27;20071;-77
2024/01/06 05:23:55;;;;;;;19.48;14.50;;;0.70;99.90;;;;;;5160045;27;20034;-77
2024/01/06 05:26:21;;;;;;;20.20;14.57;;;0.80;99.90;;;;;;5174066;27;20038;-77
2024/01/06 05:28:46;;;;;;;20.20;13.43;;;0.80;99.90;;;;;;5130303;27;20084;-77
2024/01/06 05:31:12;;;;;;;21.10;14.45;;;0.80;99.90;;;;;;5165741;27;20027;-76
2024/01/06 05:33:38;;;;;;;20.80;14.63;;;0.80;99.90;;;;;;5145307;27;20071;-76
2024/01/06 05:36:04;;;;;;;18.38;15.20;;;0.70;99.90;;;;;;5118966;27;20126;-77
2024/01/06 05:38:33;;;;;;;21.33;13.48;;;0.70;99.90;;;;;;5163526;27;20043;-77
2024/01/06 05:40:59;;;;;;;21.15;15.02;;;0.70;99.90;;;;;;5152934;27;20043;-76
2024/01/06 05:43:24;;;;;;;21.20;15.43;;;0.70;99.90;;;;;;5139926;27;20038;-78
2024/01/06 05:45:50;;;;;;;20.48;14.43;;;0.70;99.90;;;;;;5133938;27;20051;-77
2024/01/06 05:48:16;;;;;;;21.75;15.02;;;0.80;99.90;;;;;;5133953;27;20034;-77
2024/01/06 05:50:42;;;;;;;19.20;14.18;;;0.80;99.90;;;;;;5131989;27;20140;-77
2024/01/06 05:53:08;;;;;;;19.77;14.25;;;0.80;99.90;;;;;;5126390;27;20469;-77
2024/01/06 05:55:34;;;;;;;19.63;13.90;;;0.90;99.90;;;;;;5141643;27;20122;-77
2024/01/06 05:58:00;;;;;;;26.50;14.35;;;0.80;99.90;;;;;;5126203;27;20135;-77
2024/01/06 06:00:27;;;;;;;19.10;14.65;;;0.80;99.90;;;;;;5141007;27;20078;-77
2024/01/06 06:02:52;;;;;;;19.48;13.63;;;0.80;99.90;;;;;;5157553;27;20041;-78
2024/01/06 06:05:18;;;;;;;19.00;14.32;;;1.20;99.90;;;;;;5164203;27;20126;-78
2024/01/06 06:07:43;;;;;;;17.75;13.30;;;0.90;99.90;;;;;;5150951;27;20088;-78
2024/01/06 06:10:11;;;;;;;21.00;13.75;;;0.90;99.90;;;;;;5142009;27;20054;-78
2024/01/06 06:12:37;;;;;;;20.38;14.98;;;0.90;99.90;;;;;;5123645;27;20145;-77
2024/01/06 06:15:04;;;;;;;18.75;14.15;;;0.90;99.90;;;;;;5166809;27;20032;-76
2024/01/06 06:17:31;;;;;;;21.17;16.35;;;0.80;99.90;;;;;;5143149;27;20030;-77
2024/01/06 06:19:57;;;;;;;19.10;13.90;;;0.90;99.90;;;;;;5123787;27;20031;-76
2024/01/06 06:22:23;;;;;;;21.42;15.52;;;0.90;99.90;;;;;;5143814;27;20039;-77
2024/01/06 06:24:50;;;;;;;19.48;14.55;;;0.90;99.90;;;;;;5150815;27;20031;-77
2024/01/06 06:27:19;;;;;;;19.88;15.38;;;0.90;99.90;;;;;;5155747;27;20035;-80
2024/01/06 06:29:44;;;;;;;22.08;14.40;;;1.00;99.90;;;;;;5140078;27;20442;-77
2024/01/06 06:32:10;;;;;;;20.00;15.00;;;0.90;99.90;;;;;;5147994;27;20039;-77
2024/01/06 06:34:36;;;;;;;23.73;15.05;;;0.90;99.90;;;;;;5131454;27;20031;-77
2024/01/06 06:37:05;;;;;;;20.60;15.85;;;1.00;99.90;;;;;;5138819;27;20035;-77
2024/01/06 06:39:33;;;;;;;19.48;15.18;;;1.00;99.90;;;;;;5138383;27;20050;-78
2024/01/06 06:42:02;;;;;;;21.75;16.13;;;1.40;99.90;;;;;;5141343;27;20068;-76
2024/01/06 06:44:30;;;;;;;19.52;14.93;;;0.90;99.90;;;;;;5124445;27;20102;-77
2024/01/06 06:46:56;;;;;;;21.75;16.45;;;0.80;99.90;;;;;;5148057;27;20039;-77
2024/01/06 06:49:23;;;;;;;22.85;17.85;;;1.00;99.90;;;;;;5125823;27;20053;-77
2024/01/06 06:51:49;;;;;;;23.38;17.70;;;1.10;99.90;;;;;;5138185;27;20071;-77
2024/01/06 06:54:16;;;;;;;20.73;17.05;;;1.00;99.90;;;;;;5154673;27;20034;-75
2024/01/06 06:56:43;;;;;;;21.45;15.85;;;1.00;99.90;;;;;;5143220;27;20069;-77
2024/01/06 06:59:10;;;;;;;23.65;16.65;;;1.00;99.90;;;;;;5135838;27;20049;-76
2024/01/06 07:01:36;;;;;;;25.38;18.10;;;1.00;99.90;;;;;;5161408;27;20118;-77
2024/01/06 07:04:05;;;;;;;23.58;18.35;;;1.00;99.90;;;;;;5122575;27;20179;-76
2024/01/06 07:06:34;;;;;;;29.27;18.77;;;1.00;99.90;;;;;;5121882;27;20039;-77
2024/01/06 07:08:59;;;;;;;25.65;18.98;;;1.00;99.90;;;;;;5129523;27;20042;-76
2024/01/06 07:11:25;;;;;;;29.15;20.42;;;1.00;99.90;;;;;;5147873;27;20035;-76
2024/01/06 07:13:51;;;;;;;28.92;19.48;;;0.90;99.90;;;;;;5154025;27;20045;-77
2024/01/06 07:16:16;;;;;;;28.80;17.85;;;1.00;99.90;;;;;;5148563;27;20035;-76
2024/01/06 07:18:42;;;;;;;26.98;19.83;;;1.00;99.90;;;;;;5148088;27;20043;-77
2024/01/06 07:21:08;;;;;;;27.60;18.80;;;1.00;99.90;;;;;;5140764;27;20043;-76
2024/01/06 07:23:33;;;;;;;27.40;20.23;;;1.00;99.90;;;;;;5109481;27;20046;-77
2024/01/06 07:25:59;;;;;;;26.70;20.38;;;1.10;99.90;;;;;;5142048;27;20099;-77
2024/01/06 07:28:25;;;;;;;27.92;21.50;;;1.00;99.90;;;;;;5157927;27;20377;-76
2024/01/06 07:30:51;;;;;;;32.10;20.80;;;1.00;99.90;;;;;;5134712;27;20074;-76
2024/01/06 07:33:17;;;;;;;30.40;22.58;;;1.10;99.90;;;;;;5151722;27;20445;-77
2024/01/06 07:35:43;;;;;;;32.40;21.65;;;1.00;99.90;;;;;;5148133;27;20035;-78
2024/01/06 07:38:12;;;;;;;33.05;23.08;;;1.00;99.90;;;;;;5124832;27;20078;-77
2024/01/06 07:40:38;;;;;;;30.67;22.05;;;1.00;99.90;;;;;;5118423;27;20066;-76
2024/01/06 07:43:04;;;;;;;31.55;22.20;;;1.00;99.90;;;;;;5140648;27;20416;-76
2024/01/06 07:45:31;;;;;;;33.22;24.48;;;1.00;99.90;;;;;;5121691;28;20058;-77
2024/01/06 07:47:58;;;;;;;31.30;22.52;;;1.00;99.90;;;;;;5167886;27;20046;-76
2024/01/06 07:50:24;;;;;;;33.03;25.40;;;1.00;99.90;;;;;;5152755;27;20031;-76
2024/01/06 07:52:54;;;;;;;31.83;23.52;;;1.00;99.90;;;;;;5145199;27;20057;-77
2024/01/06 07:55:19;;;;;;;30.20;23.88;;;1.00;99.90;;;;;;5127987;27;20122;-76
2024/01/06 07:57:46;;;;;;;33.42;22.98;;;1.10;99.90;;;;;;5146775;27;20047;-77
2024/01/06 08:00:16;;;;;;;29.63;22.17;;;1.10;99.90;;;;;;5163257;27;20030;-76
2024/01/06 08:02:42;;;;;;;29.65;22.50;;;1.10;99.90;;;;;;5177264;27;20050;-77
2024/01/06 08:05:08;;;;;;;28.33;20.85;;;1.10;99.90;;;;;;5139786;27;20031;-77
2024/01/06 08:07:35;;;;;;;30.58;21.83;;;1.10;99.90;;;;;;5127087;27;20051;-77
2024/01/06 08:10:04;;;;;;;28.08;21.02;;;1.10;99.90;;;;;;5133075;27;20038;-77
2024/01/06 08:12:30;;;;;;;31.67;23.05;;;1.10;99.90;;;;;;5141772;27;20498;-78
2024/01/06 08:14:56;;;;;;;28.17;21.85;;;1.10;99.90;;;;;;5114561;27;20035;-78
2024/01/06 08:17:22;;;;;;;27.90;19.95;;;1.10;99.90;;;;;;5115730;27;20043;-77
2024/01/06 08:19:47;;;;;;;29.15;21.65;;;1.10;99.90;;;;;;5146872;27;20047;-78
2024/01/06 08:22:13;;;;;;;28.30;21.13;;;1.10;99.90;;;;;;5132989;27;20043;-78
2024/01/06 08:24:39;;;;;;;28.52;20.80;;;1.20;99.90;;;;;;5155027;27;20047;-79
2024/01/06 08:27:05;;;;;;;26.52;19.25;;;1.20;99.90;;;;;;5125003;27;20091;-78
2024/01/06 08:29:31;;;;;;;27.23;21.25;;;1.20;99.90;;;;;;5156585;27;20446;-79
2024/01/06 08:31:57;;;;;;;30.80;21.00;;;1.20;99.90;;;;;;5155753;27;20039;-78
2024/01/06 08:34:22;;;;;;;26.90;18.88;;;1.20;99.90;;;;;;5159378;27;20067;-78
2024/01/06 08:36:48;;;;;;;27.38;19.80;;;1.20;99.90;;;;;;5163953;27;20051;-78
2024/01/06 08:39:14;;;;;;;25.02;18.65;;;1.30;99.90;;;;;;5144776;27;20534;-76
2024/01/06 08:41:39;;;;;;;25.92;19.58;;;1.20;99.90;;;;;;5168499;27;20045;-77
2024/01/06 08:44:05;;;;;;;27.75;20.45;;;1.20;99.90;;;;;;5146130;27;20027;-77
2024/01/06 08:46:31;;;;;;;28.42;21.40;;;1.30;99.90;;;;;;5152689;27;20070;-77
2024/01/06 08:48:57;;;;;;;27.15;20.90;;;1.20;99.90;;;;;;5145409;27;20042;-77
2024/01/06 08:51:23;;;;;;;27.52;20.30;;;1.20;99.90;;;;;;5180693;27;20019;-78
2024/01/06 08:53:49;;;;;;;25.45;19.52;;;1.30;99.90;;;;;;5180617;27;20026;-76
2024/01/06 08:56:17;;;;;;;26.10;19.42;;;1.30;99.90;;;;;;5141650;27;20038;-77
2024/01/06 08:58:43;;;;;;;25.65;19.42;;;1.20;99.90;;;;;;5143013;27;20035;-76
2024/01/06 09:01:09;;;;;;;25.83;18.88;;;1.30;99.90;;;;;;5161456;27;20031;-76
2024/01/06 09:03:35;;;;;;;28.70;21.50;;;1.20;99.90;;;;;;5144095;27;20015;-78
2024/01/06 09:06:01;;;;;;;31.10;21.23;;;1.30;99.90;;;;;;5150615;27;20047;-77
2024/01/06 09:08:26;;;;;;;24.35;18.75;;;1.30;99.90;;;;;;5166691;27;20039;-76
2024/01/06 09:10:56;;;;;;;25.50;19.75;;;1.40;99.90;;;;;;5152969;27;20046;-77
2024/01/06 09:13:23;;;;;;;26.63;18.05;;;1.40;99.90;;;;;;5114187;27;20411;-77
2024/01/06 09:15:51;;;;;;;21.42;17.52;;;1.30;99.90;;;;;;5154402;27;20501;-78
2024/01/06 09:18:16;;;;;;;26.63;20.00;;;1.30;99.90;;;;;;5127684;27;20101;-77
2024/01/06 09:20:42;;;;;;;24.35;19.55;;;1.30;99.90;;;;;;5140815;27;20481;-77
2024/01/06 09:23:08;;;;;;;22.65;18.15;;;1.40;99.90;;;;;;5117944;27;20074;-77
2024/01/06 09:25:33;;;;;;;26.88;17.77;;;1.40;99.90;;;;;;5111044;27;20078;-77
2024/01/06 09:27:59;;;;;;;24.55;18.90;;;1.70;99.90;;;;;;5132789;27;20084;-78
2024/01/06 09:30:25;;;;;;;24.00;17.65;;;1.40;99.90;;;;;;5110891;27;20039;-77
2024/01/06 09:32:51;;;;;;;23.75;17.42;;;1.40;99.90;;;;;;5138004;27;20073;-77
2024/01/06 09:35:17;;;;;;;26.05;18.58;;;1.40;99.90;;;;;;5147393;27;20043;-78
2024/01/06 09:37:42;;;;;;;24.95;18.35;;;2.00;99.90;;;;;;5113547;27;20085;-77
2024/01/06 09:40:13;;;;;;;26.35;18.38;;;1.40;99.90;;;;;;5115541;27;20043;-76
2024/01/06 09:42:39;;;;;;;25.13;18.60;;;1.40;99.90;;;;;;5130805;27;20442;-78
2024/01/06 09:45:05;;;;;;;24.67;18.70;;;1.40;99.90;;;;;;5132443;27;20430;-77
2024/01/06 09:47:34;;;;;;;25.92;19.70;;;1.40;99.90;;;;;;5110979;27;20119;-77
2024/01/06 09:50:03;;;;;;;27.77;19.48;;;2.20;99.90;;;;;;5149212;27;20034;-78
2024/01/06 09:52:38;;;;;;;24.60;18.55;;;1.40;99.90;;;;;;5148907;27;20370;-77
2024/01/06 09:55:09;;;;;;;25.42;17.92;;;1.40;99.90;;;;;;5111901;27;20062;-76
2024/01/06 09:57:35;;;;;;;23.23;18.30;;;1.50;99.90;;;;;;5130602;27;20066;-78
2024/01/06 10:00:01;;;;;;;24.75;18.98;;;1.40;99.90;;;;;;5142618;27;20039;-77
2024/01/06 10:02:31;;;;;;;24.00;17.45;;;1.40;99.90;;;;;;5150157;27;20039;-77
2024/01/06 10:04:58;;;;;;;25.13;17.85;;;1.40;99.90;;;;;;5118769;27;20106;-77
2024/01/06 10:07:27;;;;;;;25.83;19.15;;;1.50;99.90;;;;;;5132458;27;20551;-77
2024/01/06 10:09:54;;;;;;;21.20;17.02;;;1.40;99.90;;;;;;5137909;27;20058;-78
2024/01/06 10:12:28;;;;;;;22.65;17.38;;;1.40;99.90;;;;;;5127284;27;20427;-77
2024/01/06 10:14:56;;;;;;;22.67;17.60;;;1.40;99.90;;;;;;5125834;27;20095;-79
2024/01/06 10:17:22;;;;;;;26.02;18.70;;;1.80;99.90;;;;;;5116561;27;20047;-77
2024/01/06 10:19:48;;;;;;;25.98;18.00;;;1.40;99.90;;;;;;5098542;27;20049;-77
2024/01/06 10:22:14;;;;;;;22.42;18.60;;;1.40;99.90;;;;;;5110130;27;20060;-78
2024/01/06 10:24:40;;;;;;;23.50;19.08;;;1.50;99.90;;;;;;5156591;27;20444;-79
2024/01/06 10:27:08;;;;;;;22.27;19.15;;;1.50;99.90;;;;;;5117754;27;20034;-77
2024/01/06 10:29:34;;;;;;;23.70;16.73;;;1.50;99.90;;;;;;5108691;27;20031;-78
2024/01/06 10:32:00;;;;;;;26.75;19.17;;;1.40;99.90;;;;;;5128103;27;20580;-78
2024/01/06 10:34:26;;;;;;;29.58;18.02;;;1.50;99.90;;;;;;5138389;27;20496;-79
2024/01/06 10:36:52;;;;;;;25.63;18.92;;;1.40;99.90;;;;;;5153998;27;20476;-77
2024/01/06 10:39:19;;;;;;;25.75;18.95;;;1.40;99.90;;;;;;5129573;27;20043;-78
2024/01/06 10:41:48;;;;;;;28.13;19.35;;;1.40;99.90;;;;;;5128413;27;20066;-78
2024/01/06 10:44:15;;;;;;;26.42;19.30;;;1.40;99.90;;;;;;5134125;27;20042;-78
2024/01/06 10:46:41;;;;;;;24.35;19.38;;;1.40;99.90;;;;;;5130641;27;20042;-78
2024/01/06 10:49:10;;;;;;;23.95;18.40;;;1.40;99.90;;;;;;5130209;27;20043;-77
2024/01/06 10:51:40;;;;;;;26.48;20.08;;;1.40;99.90;;;;;;5131793;27;20423;-78
2024/01/06 10:54:06;;;;;;;24.13;18.30;;;1.40;99.90;;;;;;5143088;27;20099;-78
2024/01/06 10:56:38;;;;;;;26.50;20.50;;;1.40;99.90;;;;;;5143788;27;20039;-77
2024/01/06 10:59:04;;;;;;;26.70;19.70;;;1.40;99.90;;;;;;5115276;27;20042;-77
2024/01/06 11:01:31;;;;;;;22.48;17.92;;;1.90;99.90;;;;;;5147422;27;20027;-77
2024/01/06 11:03:58;;;;;;;23.90;19.10;;;1.50;99.90;;;;;;5130836;27;20092;-77
2024/01/06 11:06:24;;;;;;;24.23;17.65;;;1.40;99.90;;;;;;5120957;27;20507;-78
2024/01/06 11:09:31;;;;;;;23.48;17.85;;;1.40;99.90;;;;;;5126321;27;20061;-78
2024/01/06 11:11:57;;;;;;;22.92;16.38;;;1.40;99.90;;;;;;5112763;27;20520;-78
2024/01/06 11:14:34;;;;;;;20.98;16.00;;;1.40;99.90;;;;;;5108333;27;20035;-77
2024/01/06 11:17:00;;;;;;;22.98;17.40;;;1.40;99.90;;;;;;5122663;27;20065;-78
2024/01/06 11:19:35;;;;;;;21.15;17.05;;;1.50;99.90;;;;;;5120204;27;20099;-78
2024/01/06 11:22:28;;;;;;;20.90;15.55;;;1.40;99.90;;;;;;5122815;27;20046;-78
2024/01/06 11:25:05;;;;;;;17.83;14.55;;;1.50;99.90;;;;;;5123863;27;20051;-78
2024/01/06 11:27:32;;;;;;;17.23;12.10;;;1.50;99.90;;;;;;5115527;27;20145;-76
2024/01/06 11:30:05;;;;;;;18.15;13.75;;;1.50;99.90;;;;;;5131551;27;20047;-77
2024/01/06 11:32:35;;;;;;;15.75;12.07;;;2.00;99.90;;;;;;5112108;27;20050;-77
2024/01/06 11:35:11;;;;;;;17.08;12.43;;;1.50;99.90;;;;;;5141313;27;20039;-77
2024/01/06 11:38:00;;;;;;;14.20;11.18;;;1.80;99.90;;;;;;5125596;27;20039;-78
2024/01/06 11:40:36;;;;;;;15.30;11.87;;;1.80;99.90;;;;;;5147583;27;20057;-79
2024/01/06 11:43:15;;;;;;;15.18;12.07;;;1.50;99.90;;;;;;5128989;27;20296;-78
2024/01/06 11:45:42;;;;;;;16.13;11.95;;;1.50;99.90;;;;;;5119361;27;20457;-77
2024/01/06 11:48:11;;;;;;;16.10;12.35;;;1.60;99.90;;;;;;5113599;27;20046;-77
2024/01/06 11:50:38;;;;;;;15.70;13.65;;;1.60;99.90;;;;;;5113083;27;20043;-77
2024/01/06 11:53:05;;;;;;;14.55;10.55;;;1.60;99.90;;;;;;5134604;27;20049;-78
2024/01/06 11:55:35;;;;;;;16.17;11.93;;;1.70;99.90;;;;;;5144689;27;20053;-77
2024/01/06 11:58:05;;;;;;;13.02;10.32;;;1.60;99.90;;;;;;5148715;27;20043;-76
2024/01/06 12:00:39;;;;;;;14.18;10.32;;;1.50;99.90;;;;;;5149306;27;20039;-78
2024/01/06 12:03:05;;;;;;;14.00;10.70;;;1.40;99.90;;;;;;5121850;28;20050;-77
2024/01/06 12:05:31;;;;;;;14.05;10.75;;;1.50;99.90;;;;;;5138818;28;20118;-77
2024/01/06 12:07:58;;;;;;;13.43;10.55;;;1.50;99.90;;;;;;5146192;27;20392;-77
2024/01/06 12:10:26;;;;;;;14.45;10.48;;;1.40;99.90;;;;;;5139110;27;20095;-77
2024/01/06 12:12:58;;;;;;;13.85;10.52;;;1.50;99.90;;;;;;5110558;27;20074;-78
2024/01/06 12:15:24;;;;;;;13.98;11.77;;;1.50;99.90;;;;;;5105452;28;20047;-77
2024/01/06 12:17:52;;;;;;;13.00;10.20;;;2.00;99.90;;;;;;5163343;27;20070;-77
2024/01/06 12:20:18;;;;;;;13.80;9.98;;;1.50;99.90;;;;;;5131370;28;20070;-77
2024/01/06 12:22:44;;;;;;;16.45;10.07;;;1.40;99.90;;;;;;5122399;28;20476;-78
2024/01/06 12:25:10;;;;;;;14.07;10.85;;;1.40;99.90;;;;;;5139892;27;20107;-79
2024/01/06 12:27:41;;;;;;;17.02;11.98;;;1.40;99.90;;;;;;5118502;28;20126;-78
2024/01/06 12:30:16;;;;;;;14.45;10.82;;;1.40;99.90;;;;;;5119638;28;20044;-78
